createdAt,value
2022-10-12T00:00:05.656Z,16.33
2022-10-12T00:02:40.959Z,19.02
2022-10-12T00:05:09.560Z,13.93
2022-10-12T00:07:39.142Z,14.13
2022-10-12T00:10:08.013Z,12.25
2022-10-12T00:12:35.951Z,13.20
2022-10-12T00:15:03.927Z,11.00
2022-10-12T00:17:31.846Z,13.50
2022-10-12T00:19:59.673Z,13.60
2022-10-12T00:22:27.584Z,16.52
2022-10-12T00:29:19.786Z,15.27
2022-10-12T00:31:47.626Z,16.83
2022-10-12T00:34:15.481Z,15.43
2022-10-12T00:36:43.381Z,11.93
2022-10-12T00:39:11.796Z,14.98
2022-10-12T00:41:42.166Z,12.07
2022-10-12T00:44:37.528Z,11.50
2022-10-12T00:47:10.818Z,14.40
2022-10-12T00:49:38.855Z,10.73
2022-10-12T00:52:12.287Z,11.30
2022-10-12T00:54:45.146Z,14.82
2022-10-12T00:57:15.735Z,11.80
2022-10-12T01:02:15.803Z,17.80
2022-10-12T01:04:44.503Z,12.65
2022-10-12T01:07:12.846Z,11.65
2022-10-12T01:09:40.807Z,12.98
2022-10-12T01:12:09.545Z,13.48
2022-10-12T01:14:37.821Z,10.10
2022-10-12T01:17:19.115Z,12.90
2022-10-12T01:20:18.414Z,15.80
2022-10-12T01:22:57.855Z,11.60
2022-10-12T01:25:43.717Z,11.13
2022-10-12T01:28:19.750Z,11.65
2022-10-12T01:30:56.897Z,17.08
2022-10-12T01:33:33.415Z,11.68
2022-10-12T01:36:07.940Z,11.98
2022-10-12T01:38:49.475Z,19.58
2022-10-12T01:41:23.028Z,12.80
2022-10-12T01:43:52.606Z,14.70
2022-10-12T01:46:47.329Z,12.75
2022-10-12T01:49:18.146Z,13.02
2022-10-12T01:52:00.776Z,10.40
2022-10-12T01:54:40.346Z,12.27
2022-10-12T01:57:18.117Z,11.32
2022-10-12T01:59:55.842Z,10.00
2022-10-12T02:02:31.209Z,13.52
2022-10-12T02:05:03.702Z,10.95
2022-10-12T02:07:42.257Z,12.63
2022-10-12T02:10:14.336Z,10.25
2022-10-12T02:12:44.824Z,9.40
2022-10-12T02:15:14.474Z,13.90
2022-10-12T02:17:47.904Z,13.68
2022-10-12T02:20:18.744Z,10.40
2022-10-12T02:22:50.042Z,9.63
2022-10-12T02:25:22.665Z,10.35
2022-10-12T02:27:56.787Z,10.93
2022-10-12T02:30:25.047Z,10.10
2022-10-12T02:32:59.033Z,12.13
2022-10-12T02:35:36.057Z,12.02
2022-10-12T02:38:10.681Z,9.40
2022-10-12T02:40:42.899Z,9.95
2022-10-12T02:43:16.806Z,10.52
2022-10-12T02:45:47.917Z,8.85
2022-10-12T02:48:20.973Z,9.00
2022-10-12T02:50:52.490Z,11.90
2022-10-12T02:53:21.807Z,12.10
2022-10-12T02:55:50.724Z,12.25
2022-10-12T02:58:19.016Z,8.73
2022-10-12T03:00:47.938Z,10.93
2022-10-12T03:03:17.511Z,11.02
2022-10-12T03:05:45.908Z,8.20
2022-10-12T03:08:13.850Z,8.63
2022-10-12T03:10:41.747Z,15.00
2022-10-12T03:13:09.636Z,11.68
2022-10-12T03:15:37.603Z,12.73
2022-10-12T03:18:05.547Z,10.80
2022-10-12T03:20:34.814Z,9.50
2022-10-12T03:23:02.676Z,10.68
2022-10-12T03:25:30.831Z,10.18
2022-10-12T03:27:58.698Z,14.30
2022-10-12T03:30:26.573Z,11.93
2022-10-12T03:32:54.380Z,9.48
2022-10-12T03:35:22.392Z,9.65
2022-10-12T03:37:51.636Z,11.15
2022-10-12T03:40:19.419Z,16.30
2022-10-12T03:42:47.249Z,10.52
2022-10-12T03:45:15.127Z,11.75
2022-10-12T03:47:43.107Z,11.15
2022-10-12T03:50:11.138Z,12.60
2022-10-12T03:52:38.980Z,14.10
2022-10-12T03:55:09.093Z,9.90
2022-10-12T03:57:37.273Z,10.43
2022-10-12T04:00:06.469Z,11.30
2022-10-12T04:02:39.231Z,10.43
2022-10-12T04:05:07.590Z,7.50
2022-10-12T04:07:36.369Z,9.57
2022-10-12T04:10:04.951Z,9.25
2022-10-12T04:12:34.285Z,10.43
2022-10-12T04:15:02.157Z,7.28
2022-10-12T04:17:30.037Z,9.07
2022-10-12T04:19:58.038Z,11.70
2022-10-12T04:22:25.978Z,7.60
2022-10-12T04:24:53.930Z,10.05
2022-10-12T04:27:21.749Z,9.10
2022-10-12T04:29:50.983Z,9.60
2022-10-12T04:32:18.825Z,9.50
2022-10-12T04:34:46.742Z,9.32
2022-10-12T04:37:14.637Z,9.13
2022-10-12T04:39:42.604Z,10.68
2022-10-12T04:42:10.483Z,11.20
2022-10-12T04:44:38.353Z,10.00
2022-10-12T04:47:07.550Z,10.07
2022-10-12T04:49:35.429Z,11.70
2022-10-12T04:52:03.232Z,10.73
2022-10-12T04:54:32.747Z,12.25
2022-10-12T04:57:00.846Z,10.00
2022-10-12T04:59:28.700Z,11.38
2022-10-12T05:01:56.634Z,9.85
2022-10-12T05:04:26.287Z,18.23
2022-10-12T05:06:54.703Z,11.50
2022-10-12T05:09:22.516Z,10.23
2022-10-12T05:11:50.374Z,10.20
2022-10-12T05:14:18.213Z,10.57
2022-10-12T05:16:46.017Z,17.02
2022-10-12T05:19:13.874Z,13.60
2022-10-12T05:21:43.084Z,14.48
2022-10-12T05:24:11.899Z,9.57
2022-10-12T05:26:39.784Z,9.15
2022-10-12T05:29:07.722Z,12.30
2022-10-12T05:31:35.535Z,12.88
2022-10-12T05:34:03.685Z,11.55
2022-10-12T05:36:31.604Z,8.52
2022-10-12T05:39:00.887Z,11.48
2022-10-12T05:41:28.962Z,10.98
2022-10-12T05:43:56.780Z,11.00
2022-10-12T05:46:24.772Z,14.60
2022-10-12T05:48:52.805Z,7.50
2022-10-12T05:51:24.112Z,15.32
2022-10-12T05:53:54.852Z,13.32
2022-10-12T05:56:24.242Z,8.45
2022-10-12T05:58:52.140Z,13.02
2022-10-12T06:01:19.977Z,9.00
2022-10-12T06:03:47.802Z,11.52
2022-10-12T06:06:15.800Z,10.68
2022-10-12T06:08:43.576Z,12.82
2022-10-12T06:11:11.430Z,10.07
2022-10-12T06:13:40.675Z,11.68
2022-10-12T06:16:08.910Z,11.68
2022-10-12T06:18:36.821Z,12.80
2022-10-12T06:21:28.488Z,9.27
2022-10-12T06:23:52.786Z,9.63
2022-10-12T06:26:20.702Z,10.68
2022-10-12T06:28:49.894Z,16.05
2022-10-12T06:31:17.790Z,11.38
2022-10-12T06:33:45.636Z,11.15
2022-10-12T06:36:13.468Z,13.88
2022-10-12T06:38:41.323Z,12.35
2022-10-12T06:41:09.149Z,22.02
2022-10-12T06:43:37.001Z,13.98
2022-10-12T06:46:06.445Z,16.35
2022-10-12T06:48:34.300Z,13.40
2022-10-12T06:51:02.368Z,14.43
2022-10-12T06:53:32.854Z,12.40
2022-10-12T06:58:28.411Z,15.18
2022-10-12T07:00:56.366Z,10.30
2022-10-12T07:03:25.613Z,8.82
2022-10-12T07:05:53.543Z,9.50
2022-10-12T07:08:21.575Z,11.77
2022-10-12T07:10:49.447Z,9.63
2022-10-12T07:13:17.290Z,9.95
2022-10-12T07:15:50.228Z,12.63
2022-10-12T07:18:18.013Z,17.30
2022-10-12T07:20:47.420Z,9.60
2022-10-12T07:23:15.346Z,9.20
2022-10-12T07:25:48.923Z,9.70
2022-10-12T07:28:17.144Z,9.55
2022-10-12T07:30:45.167Z,9.23
2022-10-12T07:33:13.251Z,10.02
2022-10-12T07:36:03.211Z,10.93
2022-10-12T07:38:30.591Z,8.75
2022-10-12T07:41:00.910Z,10.32
2022-10-12T07:43:29.286Z,7.82
2022-10-12T07:45:57.570Z,7.82
2022-10-12T07:48:25.537Z,10.35
2022-10-12T07:50:53.361Z,9.10
2022-10-12T07:53:21.335Z,9.38
2022-10-12T07:55:50.728Z,10.98
2022-10-12T07:58:18.583Z,11.02
2022-10-12T08:00:46.447Z,9.40
2022-10-12T08:03:14.304Z,9.27
2022-10-12T08:05:42.312Z,11.40
2022-10-12T08:08:10.209Z,14.20
2022-10-12T08:10:38.298Z,14.60
2022-10-12T08:13:07.452Z,17.15
2022-10-12T08:15:35.278Z,16.98
2022-10-12T08:18:03.146Z,13.77
2022-10-12T08:20:31.000Z,13.98
2022-10-12T08:22:58.925Z,16.45
2022-10-12T08:25:27.086Z,11.95
2022-10-12T08:27:54.941Z,14.38
2022-10-12T08:30:26.890Z,14.07
2022-10-12T08:32:54.828Z,13.27
2022-10-12T08:35:22.820Z,13.25
2022-10-12T08:37:50.676Z,21.85
2022-10-12T08:40:26.660Z,11.90
2022-10-12T08:43:02.052Z,12.38
2022-10-12T08:45:40.988Z,12.10
2022-10-12T08:48:13.775Z,18.00
2022-10-12T08:50:47.447Z,13.25
2022-10-12T08:53:20.360Z,11.40
2022-10-12T08:55:48.275Z,12.88
2022-10-12T08:58:18.521Z,13.65
2022-10-12T09:00:49.886Z,17.00
2022-10-12T09:03:31.587Z,14.40
2022-10-12T09:06:09.073Z,15.70
2022-10-12T09:08:49.155Z,17.85
2022-10-12T09:11:29.667Z,14.18
2022-10-12T09:16:36.901Z,14.02
2022-10-12T09:19:09.281Z,20.85
2022-10-12T09:21:40.724Z,17.38
2022-10-12T09:24:17.575Z,21.67
2022-10-12T09:26:47.771Z,18.88
2022-10-12T09:29:24.421Z,27.33
2022-10-12T09:32:07.506Z,23.02
2022-10-12T09:34:36.777Z,26.85
2022-10-12T09:37:05.663Z,22.58
2022-10-12T09:39:37.689Z,24.70
2022-10-12T09:42:05.630Z,26.00
2022-10-12T09:44:40.008Z,33.88
2022-10-12T09:47:26.945Z,29.77
2022-10-12T09:49:58.377Z,28.80
2022-10-12T09:52:30.671Z,27.60
2022-10-12T09:55:03.659Z,26.83
2022-10-12T09:57:37.015Z,25.67
2022-10-12T10:00:08.781Z,28.52
2022-10-12T10:02:51.657Z,24.60
2022-10-12T10:05:25.983Z,26.33
2022-10-12T10:07:54.736Z,24.73
2022-10-12T10:10:29.674Z,27.08
2022-10-12T10:13:01.491Z,28.02
2022-10-12T10:15:32.589Z,30.52
2022-10-12T10:18:04.707Z,26.80
2022-10-12T10:20:44.534Z,25.25
2022-10-12T10:23:25.712Z,31.95
2022-10-12T10:25:58.857Z,24.45
2022-10-12T10:28:30.453Z,27.00
2022-10-12T10:31:02.726Z,31.35
2022-10-12T10:33:33.344Z,26.20
2022-10-12T10:36:04.641Z,27.17
2022-10-12T10:38:38.646Z,26.42
2022-10-12T10:41:07.846Z,24.15
2022-10-12T10:43:36.567Z,24.48
2022-10-12T10:46:05.801Z,23.70
2022-10-12T10:48:51.357Z,21.58
2022-10-12T10:51:19.346Z,24.38
2022-10-12T10:53:49.825Z,25.98
2022-10-12T10:58:52.522Z,21.98
2022-10-12T11:01:25.233Z,20.05
2022-10-12T11:03:59.793Z,21.10
2022-10-12T11:06:36.400Z,22.75
2022-10-12T11:09:08.210Z,22.92
2022-10-12T11:11:39.130Z,21.83
2022-10-12T11:14:15.524Z,23.38
2022-10-12T11:16:48.149Z,21.67
2022-10-12T11:19:27.461Z,23.63
2022-10-12T11:21:57.959Z,21.13
2022-10-12T11:27:02.369Z,22.45
2022-10-12T11:29:30.593Z,27.40
2022-10-12T11:32:04.231Z,23.10
2022-10-12T11:34:43.900Z,26.63
2022-10-12T11:37:20.009Z,25.55
2022-10-12T11:39:53.673Z,22.27
2022-10-12T11:42:30.382Z,22.70
2022-10-12T11:45:00.630Z,22.77
2022-10-12T11:47:37.115Z,23.17
2022-10-12T11:50:15.714Z,22.15
2022-10-12T11:52:48.210Z,21.00
2022-10-12T11:55:43.251Z,25.85
2022-10-12T11:58:15.956Z,20.88
2022-10-12T12:01:00.189Z,20.27
2022-10-12T12:03:34.936Z,21.02
2022-10-12T12:06:38.155Z,19.50
2022-10-12T12:09:21.927Z,19.27
2022-10-12T12:11:49.887Z,22.27
2022-10-12T12:15:09.592Z,23.02
2022-10-12T12:17:39.031Z,22.25
2022-10-12T12:20:51.563Z,25.35
2022-10-12T12:23:22.226Z,22.90
2022-10-12T12:26:06.529Z,21.98
2022-10-12T12:28:35.333Z,21.88
2022-10-12T12:31:07.011Z,23.73
2022-10-12T12:33:41.785Z,21.33
2022-10-12T12:36:12.779Z,20.02
2022-10-12T12:38:47.309Z,21.33
2022-10-12T12:41:18.251Z,24.17
2022-10-12T12:43:58.912Z,26.77
2022-10-12T12:47:33.082Z,22.70
2022-10-12T12:50:00.321Z,22.20
2022-10-12T12:52:30.799Z,22.58
2022-10-12T12:55:30.575Z,22.40
2022-10-12T12:58:17.560Z,27.80
2022-10-12T13:00:53.219Z,27.17
2022-10-12T13:03:39.638Z,27.15
2022-10-12T13:06:49.428Z,28.73
2022-10-12T13:09:44.972Z,26.87
2022-10-12T13:12:27.389Z,32.70
2022-10-12T13:15:11.714Z,31.38
2022-10-12T13:17:55.276Z,29.85
2022-10-12T13:20:26.377Z,29.95
2022-10-12T13:22:57.799Z,31.10
2022-10-12T13:25:33.580Z,30.88
2022-10-12T13:28:05.055Z,29.35
2022-10-12T13:30:41.141Z,33.13
2022-10-12T13:33:19.655Z,30.17
2022-10-12T13:35:53.927Z,34.45
2022-10-12T13:38:24.044Z,33.95
2022-10-12T13:40:58.818Z,31.63
2022-10-12T13:43:39.345Z,25.98
2022-10-12T13:51:26.563Z,23.05
2022-10-12T13:53:54.626Z,22.45
2022-10-12T13:56:25.940Z,24.77
2022-10-12T13:58:58.368Z,29.27
2022-10-12T14:01:27.997Z,29.00
2022-10-12T14:04:04.894Z,24.10
2022-10-12T14:06:34.373Z,24.30
2022-10-12T14:09:09.529Z,23.98
2022-10-12T14:11:38.070Z,23.25
2022-10-12T14:14:06.416Z,30.05
2022-10-12T14:16:35.685Z,23.30
2022-10-12T14:19:20.090Z,25.23
2022-10-12T14:21:50.089Z,20.10
2022-10-12T14:24:20.125Z,27.27
2022-10-12T14:26:55.832Z,26.17
2022-10-12T14:29:34.910Z,24.35
2022-10-12T14:32:06.662Z,23.63
2022-10-12T14:34:46.661Z,24.63
2022-10-12T14:37:28.233Z,24.95
2022-10-12T14:40:00.786Z,21.30
2022-10-12T14:42:33.968Z,26.73
2022-10-12T14:45:02.600Z,27.02
2022-10-12T14:47:33.549Z,23.73
2022-10-12T14:50:07.791Z,26.70
2022-10-12T14:52:41.712Z,28.63
2022-10-12T14:55:15.230Z,24.42
2022-10-12T14:57:43.158Z,26.20
2022-10-12T15:00:15.520Z,27.38
2022-10-12T15:02:45.234Z,34.40
2022-10-12T15:05:14.601Z,24.73
2022-10-12T15:07:42.634Z,29.77
2022-10-12T15:10:11.350Z,25.02
2022-10-12T15:12:39.397Z,30.33
2022-10-12T15:15:27.877Z,28.48
2022-10-12T15:17:58.686Z,23.50
2022-10-12T15:20:26.879Z,28.13
2022-10-12T15:22:54.655Z,26.15
2022-10-12T15:25:25.671Z,25.10
2022-10-12T15:27:53.571Z,29.85
2022-10-12T15:30:21.458Z,23.73
2022-10-12T15:32:49.591Z,28.35
2022-10-12T15:35:22.420Z,28.70
2022-10-12T15:37:50.608Z,24.67
2022-10-12T15:40:19.663Z,24.30
2022-10-12T15:42:48.470Z,22.90
2022-10-12T15:45:22.847Z,25.02
2022-10-12T15:47:51.955Z,27.77
2022-10-12T15:50:23.144Z,24.60
2022-10-12T15:52:51.303Z,26.42
2022-10-12T15:55:21.090Z,28.23
2022-10-12T15:57:49.409Z,30.50
2022-10-12T16:00:20.057Z,27.63
2022-10-12T16:02:48.143Z,32.03
2022-10-12T16:05:20.566Z,26.92
2022-10-12T16:07:50.230Z,32.78
2022-10-12T16:10:19.725Z,38.00
2022-10-12T16:12:49.907Z,33.30
2022-10-12T16:15:21.379Z,31.77
2022-10-12T16:17:49.676Z,28.10
2022-10-12T16:20:18.315Z,26.75
2022-10-12T16:22:46.477Z,28.13
2022-10-12T16:25:17.876Z,28.70
2022-10-12T16:27:46.771Z,27.77
2022-10-12T16:30:15.665Z,26.88
2022-10-12T16:32:44.014Z,29.33
2022-10-12T16:35:12.912Z,34.35
2022-10-12T16:37:40.952Z,31.20
2022-10-12T16:40:10.460Z,27.65
2022-10-12T16:42:39.778Z,31.23
2022-10-12T16:45:08.937Z,31.48
2022-10-12T16:47:41.887Z,26.00
2022-10-12T16:50:11.317Z,33.58
2022-10-12T16:52:39.877Z,27.42
2022-10-12T16:55:08.656Z,33.45
2022-10-12T16:57:36.591Z,32.58
2022-10-12T17:00:07.263Z,30.58
2022-10-12T17:02:35.301Z,32.70
2022-10-12T17:05:03.903Z,37.53
2022-10-12T17:07:32.137Z,35.25
2022-10-12T17:09:59.976Z,33.08
2022-10-12T17:12:28.247Z,37.88
2022-10-12T17:14:56.188Z,35.92
2022-10-12T17:17:25.393Z,47.42
2022-10-12T17:19:53.297Z,35.25
2022-10-12T17:22:21.137Z,45.22
2022-10-12T17:24:49.117Z,50.97
2022-10-12T17:27:17.337Z,46.85
2022-10-12T17:29:45.466Z,49.88
2022-10-12T17:32:14.229Z,79.43
2022-10-12T17:34:45.653Z,110.82
2022-10-12T17:37:14.633Z,85.57
2022-10-12T17:39:45.038Z,80.18
2022-10-12T17:44:40.608Z,54.00
2022-10-12T17:47:08.569Z,45.58
2022-10-12T17:49:36.455Z,36.67
2022-10-12T17:52:06.487Z,38.25
2022-10-12T17:54:34.356Z,41.87
2022-10-12T17:57:02.252Z,36.58
2022-10-12T17:59:30.097Z,34.25
2022-10-12T18:01:57.946Z,36.90
2022-10-12T18:04:25.792Z,31.63
2022-10-12T18:06:53.694Z,36.85
2022-10-12T18:09:22.915Z,40.58
2022-10-12T18:11:50.703Z,39.83
2022-10-12T18:14:19.018Z,35.10
2022-10-12T18:16:46.891Z,37.05
2022-10-12T18:19:14.913Z,39.67
2022-10-12T18:21:42.763Z,37.80
2022-10-12T18:24:16.975Z,38.90
2022-10-12T18:26:48.185Z,34.03
2022-10-12T18:29:19.147Z,36.63
2022-10-12T18:31:47.569Z,33.67
2022-10-12T18:34:15.403Z,32.15
2022-10-12T18:36:43.247Z,37.65
2022-10-12T18:39:11.244Z,36.45
2022-10-12T18:41:39.158Z,34.42
2022-10-12T18:44:09.151Z,30.48
2022-10-12T18:46:37.499Z,32.05
2022-10-12T18:49:08.172Z,34.80
2022-10-12T18:51:38.487Z,34.80
2022-10-12T18:54:07.396Z,32.30
2022-10-12T18:56:37.165Z,34.17
2022-10-12T18:59:05.692Z,36.63
2022-10-12T19:01:35.426Z,37.83
2022-10-12T19:04:03.834Z,37.00
2022-10-12T19:06:34.074Z,45.38
2022-10-12T19:09:02.313Z,47.08
2022-10-12T19:11:31.163Z,44.58
2022-10-12T19:14:01.292Z,53.42
2022-10-12T19:16:30.206Z,52.03
2022-10-12T19:19:01.429Z,43.75
2022-10-12T19:21:29.793Z,45.05
2022-10-12T19:23:57.879Z,46.65
2022-10-12T19:26:27.959Z,50.75
2022-10-12T19:28:58.277Z,44.55
2022-10-12T19:31:28.539Z,42.10
2022-10-12T19:33:57.836Z,44.03
2022-10-12T19:36:28.156Z,45.67
2022-10-12T19:38:57.286Z,40.53
2022-10-12T19:41:25.832Z,42.17
2022-10-12T19:43:54.216Z,47.72
2022-10-12T19:46:22.307Z,42.72
2022-10-12T19:48:51.337Z,47.10
2022-10-12T19:51:20.594Z,47.40
2022-10-12T19:53:53.300Z,49.33
2022-10-12T19:56:22.253Z,44.50
2022-10-12T19:58:52.902Z,51.33
2022-10-12T20:01:23.129Z,36.88
2022-10-12T20:03:51.671Z,43.65
2022-10-12T20:06:21.173Z,38.40
2022-10-12T20:08:52.765Z,38.03
2022-10-12T20:11:24.506Z,36.78
2022-10-12T20:13:53.275Z,39.17
2022-10-12T20:16:21.710Z,36.25
2022-10-12T20:18:50.412Z,39.80
2022-10-12T20:21:21.031Z,44.72
2022-10-12T20:23:51.509Z,43.75
2022-10-12T20:26:21.867Z,41.20
2022-10-12T20:28:50.408Z,42.30
2022-10-12T20:31:19.394Z,35.90
2022-10-12T20:33:51.561Z,37.55
2022-10-12T20:36:22.430Z,39.92
2022-10-12T20:38:51.911Z,38.72
2022-10-12T20:41:21.600Z,42.22
2022-10-12T20:43:49.804Z,40.40
2022-10-12T20:46:19.053Z,39.05
2022-10-12T20:48:47.740Z,37.35
2022-10-12T20:51:20.325Z,35.03
2022-10-12T20:53:48.209Z,41.08
2022-10-12T20:56:17.472Z,42.78
2022-10-12T20:58:45.367Z,37.03
2022-10-12T21:01:15.595Z,37.45
2022-10-12T21:03:43.677Z,36.75
2022-10-12T21:06:13.728Z,32.88
2022-10-12T21:08:41.773Z,38.40
2022-10-12T21:11:10.774Z,32.90
2022-10-12T21:13:41.251Z,38.38
2022-10-12T21:18:38.385Z,33.72
2022-10-12T21:21:11.397Z,34.95
2022-10-12T21:23:39.688Z,33.55
2022-10-12T21:26:12.230Z,35.88
2022-10-12T21:28:41.711Z,36.55
2022-10-12T21:31:10.037Z,33.80
2022-10-12T21:33:39.914Z,35.15
2022-10-12T21:36:09.963Z,35.08
2022-10-12T21:38:38.179Z,31.30
2022-10-12T21:41:06.890Z,34.80
2022-10-12T21:43:35.453Z,34.08
2022-10-12T21:46:06.077Z,30.83
2022-10-12T21:51:03.111Z,36.40
2022-10-12T21:53:31.993Z,33.33
2022-10-12T21:55:59.823Z,32.05
2022-10-12T21:58:27.700Z,34.72
2022-10-12T22:01:07.003Z,39.83
2022-10-12T22:03:35.173Z,35.58
2022-10-12T22:06:03.286Z,33.80
2022-10-12T22:08:31.195Z,38.20
2022-10-12T22:11:04.117Z,34.67
2022-10-12T22:13:31.973Z,31.95
2022-10-12T22:16:04.440Z,33.58
2022-10-12T22:18:33.757Z,26.98
2022-10-12T22:21:03.985Z,28.23
2022-10-12T22:23:32.503Z,30.77
2022-10-12T22:26:06.348Z,26.80
2022-10-12T22:28:34.957Z,28.20
2022-10-12T22:31:06.495Z,29.00
2022-10-12T22:33:35.779Z,33.95
2022-10-12T22:36:06.821Z,28.25
2022-10-12T22:38:35.900Z,28.10
2022-10-12T22:41:06.541Z,29.08
2022-10-12T22:43:39.177Z,36.55
2022-10-12T22:46:07.522Z,30.17
2022-10-12T22:48:38.620Z,27.63
2022-10-12T22:51:08.104Z,31.10
2022-10-12T22:53:37.248Z,33.47
2022-10-12T22:56:07.514Z,34.80
2022-10-12T22:58:36.563Z,38.65
2022-10-12T23:01:06.952Z,38.90
2022-10-12T23:03:37.663Z,38.47
2022-10-12T23:06:12.104Z,35.63
2022-10-12T23:08:40.230Z,37.05
2022-10-12T23:11:10.248Z,41.53
2022-10-12T23:13:39.373Z,37.70
2022-10-12T23:16:09.791Z,34.80
2022-10-12T23:18:39.881Z,34.08
2022-10-12T23:21:09.920Z,34.58
2022-10-12T23:23:38.786Z,34.17
2022-10-12T23:26:08.933Z,31.65
2022-10-12T23:28:36.784Z,29.98
2022-10-12T23:33:35.772Z,28.30
2022-10-12T23:36:07.518Z,33.30
2022-10-12T23:38:36.763Z,33.90
2022-10-12T23:41:04.860Z,34.15
2022-10-12T23:43:33.546Z,29.80
2022-10-12T23:46:02.788Z,31.43
2022-10-12T23:48:31.155Z,33.40
2022-10-12T23:50:59.353Z,29.90
2022-10-12T23:53:29.062Z,34.50
2022-10-12T23:55:57.313Z,30.88
2022-10-12T23:58:25.093Z,33.00
